EST,Max TemperatureF,Mean TemperatureF,Min TemperatureF,Max Dew PointF,MeanDew PointF,Min DewpointF,Max Humidity, Mean Humidity, Min Humidity, Max Sea Level PressureIn, Mean Sea Level PressureIn, Min Sea Level PressureIn, Max VisibilityMiles, Mean VisibilityMiles, Min VisibilityMiles, Max Wind SpeedMPH, Mean Wind SpeedMPH, Max Gust SpeedMPH,PrecipitationIn, CloudCover, Events, WindDirDegrees
2014-2-1,27,23,18,23,21,17,92,87,81,30.14,29.95,29.84,10,3,0,10,5,14,0.24,7,Fog-Snow,31
2014-2-2,25,13,0,20,13,-2,91,79,67,30.32,30.20,30.05,10,9,2,13,6,17,T,6,Snow,308
2014-2-3,23,9,-6,14,2,-8,95,79,62,30.40,30.35,30.28,10,8,2,14,4,18,0.00,5,,173
2014-2-4,24,15,5,17,10,3,88,75,62,30.45,30.35,30.16,10,8,2,12,4,15,T,4,Snow,97
2014-2-5,24,20,16,18,14,6,91,72,52,30.41,30.14,30.03,10,3,0,16,8,23,0.13,7,Fog-Snow,16
2014-2-6,18,15,11,12,9,5,83,78,73,30.41,30.32,30.27,10,3,0,21,12,26,0.01,8,Fog-Snow,251
2014-2-7,15,12,9,7,5,3,80,74,67,30.35,30.30,30.26,10,4,1,28,16,33,T,7,Snow,249
2014-2-8,18,14,10,12,9,6,88,78,67,30.33,30.24,30.16,10,5,1,15,7,19,0.05,8,Snow,192
2014-2-9,21,17,13,16,13,9,92,80,67,30.23,30.12,30.05,10,3,1,15,7,20,0.05,8,Snow,271
2014-2-10,17,12,7,13,9,4,88,81,73,30.44,30.32,30.19,10,3,1,14,7,21,0.03,8,Snow,294
2014-2-11,17,5,-8,8,3,-11,95,81,67,30.54,30.47,30.40,10,8,2,10,5,13,T,6,Snow,178
2014-2-12,22,6,-11,11,1,-14,79,66,52,30.44,30.27,30.08,10,9,5,10,5,14,0.00,5,,164
2014-2-13,30,22,13,22,14,5,81,60,39,30.07,29.75,29.46,10,9,2,20,8,25,T,6,Snow,159
2014-2-14,30,22,13,27,18,11,85,77,68,29.91,29.68,29.45,10,4,1,18,10,24,0.01,7,Snow,299
2014-2-15,22,15,7,14,10,6,91,80,68,30.11,30.04,29.91,10,8,2,13,4,15,T,6,Snow,13
2014-2-16,28,17,5,18,14,6,92,78,63,30.33,30.06,29.92,10,6,1,12,5,16,0.05,6,Snow,194
2014-2-17,20,14,8,17,14,4,92,67,42,30.36,29.89,29.67,10,3,0,25,12,31,0.22,6,Fog-Snow,101
2014-2-18,45,32,19,30,22,16,88,69,49,29.99,29.81,29.65,10,7,1,25,13,34,0.02,4,Snow,228
2014-2-19,40,34,27,31,28,22,89,77,64,30.03,29.83,29.62,10,8,1,22,8,27,0.01,3,Snow,262
2014-2-20,46,38,30,36,32,26,100,85,70,30.02,29.59,29.29,10,4,0,39,15,50,0.52,8,Fog-Rain-Snow,103
2014-2-21,37,32,26,31,24,15,100,77,53,29.78,29.49,29.34,10,5,0,46,30,56,0.31,7,Fog-Snow,231
2014-2-22,30,27,23,20,16,14,74,66,58,30.04,29.94,29.79,10,10,10,25,16,30,0.00,1,,251
2014-2-23,26,23,19,15,13,10,73,65,57,30.17,30.12,30.04,10,10,10,24,14,31,0.00,2,,275
2014-2-24,22,20,18,14,11,9,77,68,59,30.22,30.18,30.10,10,8,2,21,11,28,T,8,Snow,294
2014-2-25,20,16,12,14,10,3,88,71,54,30.21,30.14,30.06,10,5,1,18,10,29,T,8,Snow,259
2014-2-26,18,13,8,13,5,-2,80,72,64,30.16,29.97,29.58,9,2,0,35,18,44,0.02,8,Fog-Snow,266
2014-2-27,19,6,-7,12,2,-9,88,74,60,30.25,29.85,29.53,10,2,0,30,11,39,T,8,Fog-Snow,322
2014-2-28,20,6,-9,9,-3,-12,83,64,45,30.31,30.21,30.06,10,10,10,20,9,24,0.00,4,,132